Aldan, Russia
Current Conditions -  °F | °C
As of 3:30 PM on Thursday 23 Oct 2014 (Local Time) from UEEE Reporting Station
Clear Clear  
Wind Chill:   Ceiling: Unl
Heat Index:   Visibility: 6mi
Dew Point: -2°   Wind: 0mph
Humidity: 72%   Direction: NA
Pressure: 29.53"   Gusts: NA
Location:  58.61°N, 125.39°E
Report Text: UEEE 230630Z 00000MPS CAVOK M15/M19 Q1000 NOSIG RMK QFE74123490150
Loading
Personal Weather Stations






























Interactive Weather Map
Tropical Storm Tracking
New forecast layout! Learn more

10-Day Weather Forecast

Advertisements
Track Severe Weather on mobile